Time;durP1;ratioP1;P1;durP2;ratioP2;P2;SDS_P1;SDS_P2;PMS_P1;PMS_P2;Temp;Humidity;BMP_temperature;BMP_pressure;BME280_temperature;BME280_humidity;BME280_pressure;Samples;Min_cycle;Max_cycle;Signal;HPM_P1;HPM_P2
2024/04/22 00:02:09;;;;;;;31.65;10.85;;;5.50;66.30;;;0.05;100.00;95641.91;5282688;27;20013;-50
2024/04/22 00:04:35;;;;;;;68.40;11.60;;;5.40;66.20;;;0.02;100.00;95639.69;5292669;27;20466;-52
2024/04/22 00:07:01;;;;;;;35.97;12.13;;;5.40;66.30;;;0.03;100.00;95636.84;5300593;27;20013;-49
2024/04/22 00:09:26;;;;;;;31.92;10.65;;;5.40;66.30;;;0.05;100.00;95636.66;5278224;27;20431;-50
2024/04/22 00:11:52;;;;;;;40.35;11.10;;;5.40;66.40;;;0.02;100.00;95634.44;5286211;27;20061;-50
2024/04/22 00:14:20;;;;;;;50.60;11.50;;;5.40;66.40;;;0.02;100.00;95632.63;5273318;27;20009;-49
2024/04/22 00:16:46;;;;;;;43.35;11.20;;;5.40;66.40;;;-0.01;100.00;95625.97;5285779;27;20009;-54
2024/04/22 00:19:11;;;;;;;108.38;13.77;;;5.40;66.40;;;-0.01;100.00;95630.41;5279296;27;20053;-52
2024/04/22 00:21:37;;;;;;;33.35;11.20;;;5.40;66.40;;;0.05;100.00;95626.19;5283159;27;20017;-49
2024/04/22 00:24:05;;;;;;;33.33;10.60;;;5.40;66.50;;;0.07;100.00;95619.75;5224486;27;20030;-52
2024/04/22 00:26:32;;;;;;;34.55;11.02;;;5.40;66.80;;;0.07;100.00;95622.38;5210937;27;20007;-51
2024/04/22 00:28:57;;;;;;;42.97;10.68;;;5.40;66.60;;;0.09;100.00;95615.09;5218839;27;20497;-49
2024/04/22 00:31:23;;;;;;;172.30;15.45;;;5.40;66.60;;;0.06;100.00;95612.88;5210896;27;20011;-52
2024/04/22 00:33:53;;;;;;;39.58;10.60;;;5.40;66.70;;;0.08;100.00;95610.06;5213681;27;20007;-53
2024/04/22 00:36:20;;;;;;;147.13;15.23;;;5.40;66.70;;;0.09;100.00;95606.44;5230574;27;20018;-51
2024/04/22 00:38:46;;;;;;;142.65;16.25;;;5.40;66.70;;;0.09;100.00;95611.69;5245659;27;20011;-55
2024/04/22 00:41:12;;;;;;;45.10;10.82;;;5.50;66.80;;;0.04;100.00;95612.28;5220472;27;20022;-56
2024/04/22 00:43:38;;;;;;;34.28;12.00;;;5.50;66.80;;;0.10;100.00;95615.94;5219012;27;20011;-52
2024/04/22 00:46:06;;;;;;;37.47;11.88;;;5.50;66.80;;;0.12;100.00;95604.22;5221223;27;20361;-52
2024/04/22 00:48:34;;;;;;;33.65;11.95;;;5.50;66.80;;;0.14;100.00;95612.72;5214787;27;20014;-52
2024/04/22 00:51:01;;;;;;;37.85;12.20;;;5.40;66.80;;;0.16;100.00;95607.28;5219289;27;20026;-53
2024/04/22 00:53:28;;;;;;;88.47;13.02;;;5.50;66.90;;;0.17;100.00;95601.84;5219915;27;20010;-53
2024/04/22 00:55:55;;;;;;;35.25;12.35;;;5.50;66.90;;;0.18;100.00;95608.69;5220400;27;20010;-52
2024/04/22 00:58:28;;;;;;;34.58;11.88;;;5.50;67.00;;;0.18;100.00;95605.25;5228210;27;20503;-50
2024/04/22 01:01:00;;;;;;;;;;;5.50;67.00;;;0.19;100.00;95610.31;5225592;27;20059;-50
2024/04/22 01:03:26;;;;;;;35.05;11.82;;;5.50;66.80;;;0.20;100.00;95605.88;5213379;27;19999;-52
2024/04/22 01:05:53;;;;;;;32.78;11.48;;;5.50;66.90;;;0.21;100.00;95605.66;5227328;27;20015;-53
2024/04/22 01:08:19;;;;;;;34.67;11.65;;;5.50;66.90;;;0.21;100.00;95605.66;5234153;27;20010;-53
2024/04/22 01:10:45;;;;;;;58.53;11.73;;;5.50;66.90;;;0.23;100.00;95603.66;5227167;27;20018;-52
2024/04/22 01:13:11;;;;;;;51.92;12.07;;;5.60;67.00;;;0.21;100.00;95595.19;5225474;27;20021;-49
2024/04/22 01:15:36;;;;;;;23.90;10.00;;;5.60;67.00;;;0.23;100.00;95601.03;5223510;27;20070;-54
2024/04/22 01:18:03;;;;;;;29.50;9.90;;;5.60;66.90;;;0.21;100.00;95597.78;5220922;27;20011;-54
2024/04/22 01:20:28;;;;;;;29.00;10.18;;;5.60;66.90;;;0.24;100.00;95593.97;5229722;27;20006;-49
2024/04/22 01:22:54;;;;;;;32.35;11.13;;;5.60;66.90;;;0.25;100.00;95592.16;5285058;21;20372;-54
2024/04/22 01:25:24;;;;;;;108.68;12.93;;;5.70;67.00;;;0.25;100.00;95581.69;5317640;26;20005;-57
2024/04/22 01:27:50;;;;;;;26.52;9.25;;;5.70;67.00;;;0.22;100.00;95583.72;5323763;26;20004;-56
2024/04/22 01:30:16;;;;;;;21.15;10.10;;;5.70;66.90;;;0.22;100.00;95575.84;5327237;26;20016;-53
2024/04/22 01:32:42;;;;;;;22.92;9.50;;;5.70;66.90;;;0.25;100.00;95579.84;5348518;26;20445;-52
2024/04/22 01:35:07;;;;;;;22.10;9.13;;;5.60;66.90;;;0.26;100.00;95572.84;5366536;26;20396;-52
2024/04/22 01:37:33;;;;;;;25.63;10.23;;;5.60;66.90;;;0.21;100.00;95568.97;5360954;26;20007;-51
2024/04/22 01:39:59;;;;;;;23.98;10.05;;;5.60;67.00;;;0.15;100.00;95568.97;5370632;26;19999;-50
2024/04/22 01:42:25;;;;;;;32.38;10.23;;;5.60;67.00;;;0.16;100.00;95568.78;5368729;26;20015;-49
2024/04/22 01:44:52;;;;;;;30.15;10.70;;;5.60;67.10;;;0.12;100.00;95564.13;5364184;26;20365;-56
2024/04/22 01:47:18;;;;;;;26.48;11.23;;;5.50;67.10;;;0.13;100.00;95563.16;5360373;26;20000;-51
2024/04/22 01:49:44;;;;;;;30.73;10.85;;;5.50;67.20;;;0.11;100.00;95560.72;5358986;26;20433;-53
2024/04/22 01:52:13;;;;;;;30.92;11.48;;;5.50;67.30;;;0.09;100.00;95562.72;5364952;26;20384;-51
2024/04/22 01:54:39;;;;;;;31.42;12.57;;;5.50;67.30;;;0.06;100.00;95563.09;5368952;26;20484;-53
2024/04/22 01:57:05;;;;;;;47.03;12.82;;;5.40;67.30;;;0.03;100.00;95555.66;5384621;26;20388;-49
2024/04/22 01:59:31;;;;;;;34.38;13.13;;;5.40;67.40;;;0.05;100.00;95561.50;5369184;26;20010;-56
2024/04/22 02:01:57;;;;;;;35.00;12.70;;;5.40;67.40;;;0.04;100.00;95553.88;5353542;26;20026;-53
2024/04/22 02:04:23;;;;;;;36.95;11.82;;;5.40;67.50;;;0.07;100.00;95553.47;5364200;26;20015;-55
2024/04/22 02:06:48;;;;;;;31.30;12.88;;;5.40;67.60;;;0.11;100.00;95549.44;5361768;26;20474;-53
2024/04/22 02:09:14;;;;;;;30.80;12.52;;;5.30;67.60;;;0.11;100.00;95552.84;5363057;26;20004;-52
2024/04/22 02:11:40;;;;;;;51.97;11.80;;;5.30;67.70;;;0.13;100.00;95550.84;5357905;26;20023;-55
2024/04/22 02:14:06;;;;;;;34.03;13.70;;;5.40;67.80;;;0.13;100.00;95548.22;5366625;26;20004;-57
2024/04/22 02:16:32;;;;;;;33.03;12.90;;;5.40;67.80;;;0.12;100.00;95546.59;5370246;26;20004;-51
2024/04/22 02:18:58;;;;;;;31.25;12.25;;;5.40;67.80;;;0.13;100.00;95545.59;5370381;26;20460;-57
2024/04/22 02:21:28;;;;;;;34.35;12.07;;;5.40;67.90;;;0.12;100.00;95540.56;5368903;26;20011;-56
2024/04/22 02:23:55;;;;;;;26.60;11.63;;;5.40;67.90;;;0.12;100.00;95540.56;5353559;26;20000;-53
2024/04/22 02:26:21;;;;;;;38.63;12.63;;;5.40;67.90;;;0.09;100.00;95539.13;5359593;26;20007;-53
2024/04/22 02:28:49;;;;;;;30.33;11.13;;;5.40;67.90;;;0.08;100.00;95544.59;5359242;26;20011;-56
2024/04/22 02:31:20;;;;;;;30.40;11.90;;;5.30;67.80;;;0.09;100.00;95544.38;5359211;26;20004;-54
2024/04/22 02:33:47;;;;;;;28.95;11.50;;;5.30;67.90;;;0.09;100.00;95544.38;5352582;26;20007;-51
2024/04/22 02:36:14;;;;;;;32.65;10.90;;;5.30;67.90;;;0.06;100.00;95544.78;5356693;26;20004;-52
2024/04/22 02:38:40;;;;;;;29.30;11.75;;;5.30;67.90;;;0.10;100.00;95537.34;5356530;26;20004;-56
2024/04/22 02:41:06;;;;;;;27.63;11.02;;;5.30;67.90;;;0.07;100.00;95538.56;5363082;26;20514;-55
2024/04/22 02:43:32;;;;;;;26.02;10.80;;;5.30;67.90;;;0.05;100.00;95530.06;5361295;26;20350;-55
2024/04/22 02:45:58;;;;;;;24.75;10.73;;;5.30;68.00;;;-0.01;100.00;95531.66;5353118;26;20039;-56
2024/04/22 02:48:24;;;;;;;21.80;9.57;;;5.30;68.10;;;0.07;100.00;95537.75;5356291;26;20101;-55
2024/04/22 02:50:49;;;;;;;21.02;9.90;;;5.30;68.10;;;0.06;100.00;95536.13;5351393;26;19999;-50
2024/04/22 02:53:15;;;;;;;21.05;9.95;;;5.30;68.10;;;0.06;100.00;95529.06;5362177;26;20027;-53
2024/04/22 02:55:41;;;;;;;21.90;9.90;;;5.30;68.10;;;0.07;100.00;95528.06;5364607;26;20545;-55
2024/04/22 02:58:07;;;;;;;21.63;10.07;;;5.30;68.20;;;0.09;100.00;95531.28;5359934;26;20020;-54
2024/04/22 03:00:33;;;;;;;21.90;9.68;;;5.30;68.20;;;0.09;100.00;95528.66;5351271;26;20082;-51
2024/04/22 03:02:59;;;;;;;26.30;9.63;;;5.30;68.30;;;0.05;100.00;95529.28;5351038;26;20060;-52
2024/04/22 03:05:25;;;;;;;21.85;9.48;;;5.30;68.30;;;0.02;100.00;95527.84;5360415;26;20018;-51
2024/04/22 03:07:51;;;;;;;20.77;9.80;;;5.30;68.30;;;0.02;100.00;95521.81;5350179;26;20009;-55
2024/04/22 03:10:17;;;;;;;40.15;10.07;;;5.30;68.30;;;0.05;100.00;95519.59;5350273;26;20012;-51
2024/04/22 03:12:43;;;;;;;19.42;9.23;;;5.30;68.30;;;0.03;100.00;95523.41;5365050;26;20018;-50
2024/04/22 03:15:09;;;;;;;18.23;8.73;;;5.30;68.30;;;0.04;100.00;95518.00;5361514;26;20003;-49
2024/04/22 03:17:35;;;;;;;21.13;9.20;;;5.30;68.40;;;-0.01;100.00;95510.72;5360903;26;20415;-53
2024/04/22 03:20:03;;;;;;;14.77;8.35;;;5.30;68.40;;;0.02;100.00;95513.97;5348248;26;20427;-51
2024/04/22 03:22:30;;;;;;;29.92;9.30;;;5.30;68.40;;;0.00;100.00;95508.94;5351297;26;20016;-51
2024/04/22 03:24:56;;;;;;;17.75;8.45;;;5.30;68.50;;;-0.03;100.00;95518.00;5352974;26;20539;-55
2024/04/22 03:27:21;;;;;;;37.28;9.73;;;5.20;68.40;;;-0.01;100.00;95513.34;5367134;26;19996;-54
2024/04/22 03:29:47;;;;;;;17.67;8.63;;;5.20;69.30;;;0.03;100.00;95505.88;5352392;26;19999;-53
2024/04/22 03:32:13;;;;;;;30.10;8.63;;;5.20;68.50;;;0.03;100.00;95507.72;5364380;26;20000;-53
2024/04/22 03:34:39;;;;;;;17.65;8.32;;;5.30;68.60;;;0.05;100.00;95510.94;5358982;26;20014;-50
2024/04/22 03:37:05;;;;;;;21.20;8.00;;;5.30;68.60;;;0.04;100.00;95510.13;5353128;26;20008;-55
2024/04/22 03:39:30;;;;;;;26.77;8.98;;;5.30;68.60;;;0.02;100.00;95509.53;5357912;26;20404;-52
2024/04/22 03:41:56;;;;;;;33.80;9.32;;;5.30;68.50;;;0.02;100.00;95511.34;5360782;26;20016;-50
2024/04/22 03:44:22;;;;;;;25.13;9.23;;;5.30;68.50;;;-0.01;100.00;95512.53;5354848;26;20013;-55
2024/04/22 03:49:51;;;;;;;27.15;8.80;;;5.30;68.60;;;-0.01;100.00;95505.47;5358907;26;20015;-53
2024/04/22 03:52:20;;;;;;;19.30;8.85;;;5.30;68.60;;;-0.05;100.00;95506.91;5358016;26;20009;-51
2024/04/22 03:54:46;;;;;;;17.42;8.88;;;5.20;68.70;;;-0.04;100.00;95502.47;5366132;26;20030;-51
2024/04/22 03:57:12;;;;;;;18.77;9.63;;;5.20;68.70;;;-0.03;100.00;95506.72;5361476;26;20016;-49
2024/04/22 03:59:38;;;;;;;21.70;9.32;;;5.20;68.70;;;-0.03;100.00;95497.03;5355789;26;20023;-52
2024/04/22 04:02:05;;;;;;;20.35;9.82;;;5.20;68.80;;;-0.07;100.00;95501.03;5360339;26;20011;-52
2024/04/22 04:04:31;;;;;;;18.45;9.82;;;5.20;68.80;;;-0.07;100.00;95503.66;5368438;26;20477;-53
2024/04/22 04:06:57;;;;;;;25.35;10.00;;;5.20;68.80;;;-0.06;100.00;95507.13;5364437;26;20008;-54
2024/04/22 04:09:23;;;;;;;21.52;9.82;;;5.20;68.80;;;-0.07;100.00;95508.09;5361062;26;20019;-53
2024/04/22 04:11:51;;;;;;;26.15;9.98;;;5.20;68.80;;;-0.05;100.00;95506.91;5362941;26;20062;-55
2024/04/22 04:14:18;;;;;;;25.48;10.00;;;5.20;68.80;;;-0.10;100.00;95495.41;5346828;26;20578;-51
2024/04/22 04:16:44;;;;;;;20.45;9.98;;;5.20;68.90;;;-0.08;100.00;95502.06;5364127;26;20351;-48
2024/04/22 04:19:10;;;;;;;21.35;10.35;;;5.20;68.90;;;-0.10;100.00;95505.88;5353586;26;20080;-53
2024/04/22 04:21:37;;;;;;;23.08;10.60;;;5.20;69.00;;;-0.14;100.00;95499.44;5360080;26;20011;-53
2024/04/22 04:24:04;;;;;;;24.48;10.85;;;5.10;68.90;;;-0.18;100.00;95496.41;5344997;26;20080;-56
2024/04/22 04:26:30;;;;;;;21.73;10.30;;;5.10;69.00;;;-0.17;100.00;95494.59;5369374;26;20373;-52
2024/04/22 04:28:56;;;;;;;34.38;10.20;;;5.10;69.00;;;-0.15;100.00;95503.06;5360641;26;20000;-52
2024/04/22 04:31:22;;;;;;;21.30;10.60;;;5.10;69.00;;;-0.16;100.00;95494.38;5354796;26;20396;-51
2024/04/22 04:33:49;;;;;;;19.40;9.80;;;5.10;69.00;;;-0.13;100.00;95501.03;5357112;26;20016;-53
2024/04/22 04:36:15;;;;;;;18.50;9.57;;;5.10;69.10;;;-0.16;100.00;95507.47;5362922;26;20458;-50
2024/04/22 04:38:41;;;;;;;18.40;9.35;;;5.10;69.10;;;-0.17;100.00;95511.13;5364564;26;20004;-50
2024/04/22 04:41:07;;;;;;;22.58;10.05;;;5.10;69.10;;;-0.15;100.00;95503.06;5368452;26;20010;-52
2024/04/22 04:43:33;;;;;;;19.30;9.23;;;5.10;69.20;;;-0.16;100.00;95501.44;5366792;26;20050;-49
2024/04/22 04:45:59;;;;;;;18.85;9.70;;;5.10;69.20;;;-0.18;100.00;95503.47;5365647;26;20440;-49
2024/04/22 04:48:26;;;;;;;23.88;10.25;;;5.10;69.20;;;-0.19;100.00;95505.25;5356614;26;20019;-50
2024/04/22 04:50:52;;;;;;;22.05;9.80;;;5.10;69.20;;;-0.17;100.00;95511.13;5369897;26;20018;-50
2024/04/22 04:53:21;;;;;;;19.58;10.27;;;5.10;69.20;;;-0.21;100.00;95511.72;5357234;26;20013;-50
2024/04/22 04:55:48;;;;;;;24.73;10.93;;;5.10;69.20;;;-0.19;100.00;95514.94;5364860;26;20018;-52
2024/04/22 04:58:15;;;;;;;24.73;12.18;;;5.10;69.20;;;-0.19;100.00;95515.72;5386842;26;20008;-50
2024/04/22 05:00:42;;;;;;;25.85;12.57;;;5.10;69.30;;;-0.17;100.00;95513.72;5355445;26;20023;-48
2024/04/22 05:03:08;;;;;;;25.83;12.43;;;5.20;69.40;;;-0.15;100.00;95509.09;5357110;26;20009;-52
2024/04/22 05:05:34;;;;;;;24.65;12.52;;;5.20;69.40;;;-0.16;100.00;95517.94;5367347;26;20007;-50
2024/04/22 05:08:00;;;;;;;26.65;12.65;;;5.20;69.40;;;-0.16;100.00;95512.72;5365850;26;20019;-52
2024/04/22 05:10:26;;;;;;;28.50;13.68;;;5.20;69.30;;;-0.14;100.00;95517.78;5365624;26;19999;-50
2024/04/22 05:12:52;;;;;;;25.92;13.55;;;5.20;69.30;;;-0.12;100.00;95510.53;5357578;26;20078;-52
2024/04/22 05:15:18;;;;;;;28.25;12.90;;;5.30;69.40;;;-0.10;100.00;95516.34;5362470;26;19999;-50
2024/04/22 05:17:44;;;;;;;25.73;13.93;;;5.30;69.40;;;-0.11;100.00;95520.78;5358289;26;20506;-47
2024/04/22 05:20:10;;;;;;;23.27;13.02;;;5.30;69.30;;;-0.11;100.00;95517.38;5361743;26;20004;-49
2024/04/22 05:22:36;;;;;;;23.25;13.73;;;5.40;69.40;;;-0.10;100.00;95517.16;5354722;26;20477;-46
2024/04/22 05:25:03;;;;;;;27.65;13.70;;;5.40;69.30;;;-0.10;100.00;95521.59;5354371;26;20447;-47
2024/04/22 05:27:31;;;;;;;22.17;12.90;;;5.50;69.30;;;-0.15;100.00;95516.97;5348136;26;20986;-48
2024/04/22 05:29:57;;;;;;;26.77;13.68;;;5.50;69.30;;;-0.11;100.00;95523.41;5359398;26;20038;-47
2024/04/22 05:32:23;;;;;;;23.70;12.75;;;5.60;69.20;;;-0.07;100.00;95527.22;5353779;26;20004;-46
2024/04/22 05:37:34;;;;;;;21.30;12.05;;;5.70;69.00;;;-0.07;100.00;95519.38;5370252;26;20018;-47
2024/04/22 05:39:59;;;;;;;19.30;11.32;;;5.80;68.90;;;0.04;100.00;95525.84;5345942;26;20012;-47
2024/04/22 05:42:25;;;;;;;20.95;12.23;;;5.80;68.70;;;0.10;100.00;95521.63;5355385;26;20043;-48
2024/04/22 05:44:51;;;;;;;23.23;12.20;;;5.90;68.60;;;0.16;100.00;95518.22;5352699;26;20016;-47
2024/04/22 05:47:17;;;;;;;17.95;11.65;;;6.00;68.50;;;0.22;100.00;95522.66;5356792;26;20011;-46
2024/04/22 05:49:43;;;;;;;18.10;10.00;;;6.10;68.40;;;0.27;100.00;95522.03;5359846;26;19996;-48
2024/04/22 05:52:09;;;;;;;15.98;10.55;;;6.30;68.20;;;0.32;100.00;95527.50;5358222;26;20363;-47
2024/04/22 05:54:35;;;;;;;16.35;10.90;;;6.40;67.90;;;0.41;100.00;95529.69;5360069;26;20018;-46
2024/04/22 05:57:01;;;;;;;13.95;9.65;;;6.60;67.60;;;0.47;100.00;95525.47;5359002;26;20008;-47
2024/04/22 05:59:26;;;;;;;15.23;9.75;;;6.80;67.30;;;0.46;100.00;95518.59;5355105;26;20463;-48
2024/04/22 06:01:52;;;;;;;15.52;9.93;;;6.90;66.90;;;0.46;100.00;95523.84;5365020;26;20004;-47
2024/04/22 06:04:18;;;;;;;12.75;8.77;;;7.00;66.60;;;0.46;100.00;95516.78;5351426;26;20012;-47
2024/04/22 06:06:44;;;;;;;13.70;9.30;;;7.00;66.30;;;0.49;100.00;95518.19;5360110;26;20014;-48
2024/04/22 06:09:12;;;;;;;11.55;8.80;;;7.10;66.10;;;0.51;100.00;95524.06;5351346;26;20005;-50
2024/04/22 06:11:39;;;;;;;13.98;8.90;;;7.00;65.90;;;0.52;100.00;95524.84;5357279;26;20037;-48
2024/04/22 06:14:05;;;;;;;11.77;7.85;;;7.00;65.80;;;0.52;100.00;95528.28;5347706;26;20016;-48
2024/04/22 06:16:31;;;;;;;11.23;8.15;;;7.00;65.80;;;0.50;100.00;95525.03;5352727;26;20003;-48
2024/04/22 06:18:58;;;;;;;11.93;7.90;;;7.10;65.70;;;0.45;100.00;95528.28;5349803;26;20000;-48
2024/04/22 06:21:24;;;;;;;10.25;7.72;;;7.10;65.60;;;0.49;100.00;95518.19;5361000;26;19996;-47
2024/04/22 06:23:51;;;;;;;10.35;7.95;;;7.10;65.50;;;0.63;100.00;95513.75;5355695;26;20011;-48
2024/04/22 06:26:17;;;;;;;10.55;7.85;;;7.10;65.40;;;0.58;100.00;95516.19;5363728;26;20011;-48
2024/04/22 06:28:43;;;;;;;11.23;8.23;;;7.10;65.30;;;0.64;100.00;95515.38;5364151;26;19995;-47
2024/04/22 06:31:10;;;;;;;10.13;7.50;;;7.20;65.30;;;0.72;100.00;95519.56;5356851;26;20004;-51
2024/04/22 06:33:40;;;;;;;10.63;7.35;;;7.20;66.00;;;0.67;100.00;95510.50;5360403;26;20015;-50
2024/04/22 06:36:09;;;;;;;11.13;7.38;;;7.20;65.20;;;0.76;100.00;95523.41;5360901;26;20000;-52
2024/04/22 06:38:34;;;;;;;11.75;7.45;;;7.20;65.10;;;0.79;100.00;95510.69;5358989;26;20340;-52
2024/04/22 06:41:00;;;;;;;10.90;7.65;;;7.30;65.10;;;0.81;100.00;95515.72;5365733;26;20015;-54
2024/04/22 06:43:26;;;;;;;10.82;7.78;;;7.30;65.00;;;0.87;100.00;95520.97;5364148;26;20036;-51
2024/04/22 06:45:52;;;;;;;10.93;7.80;;;7.30;65.00;;;0.91;100.00;95521.38;5362542;26;20003;-51
2024/04/22 06:48:18;;;;;;;10.63;7.78;;;7.30;64.90;;;0.85;100.00;95528.25;5355986;26;20460;-51
2024/04/22 06:50:44;;;;;;;11.65;8.00;;;7.40;65.00;;;0.90;100.00;95515.31;5359368;26;20064;-54
2024/04/22 06:53:11;;;;;;;11.25;8.05;;;7.30;64.90;;;0.94;100.00;95523.59;5359256;26;20040;-54
2024/04/22 06:55:36;;;;;;;11.90;7.75;;;7.40;65.00;;;1.02;100.00;95525.97;5362619;26;20007;-53
2024/04/22 06:58:03;;;;;;;13.13;8.20;;;7.40;65.00;;;1.09;100.00;95525.94;5355197;26;20088;-53
2024/04/22 07:00:30;;;;;;;11.80;7.60;;;7.40;65.00;;;1.06;100.00;95532.41;5360469;26;20015;-51
2024/04/22 07:02:56;;;;;;;10.52;7.78;;;7.40;65.00;;;1.04;100.00;95521.34;5359650;26;20077;-56
2024/04/22 07:05:22;;;;;;;11.32;7.47;;;7.40;64.90;;;1.05;100.00;95522.13;5356945;26;20004;-52
2024/04/22 07:07:48;;;;;;;10.77;7.85;;;7.30;65.00;;;1.01;100.00;95523.56;5365681;26;20000;-55
2024/04/22 07:10:14;;;;;;;11.13;8.65;;;7.30;65.00;;;1.04;100.00;95528.41;5356288;26;20008;-56
2024/04/22 07:12:44;;;;;;;10.68;7.90;;;7.30;65.00;;;1.03;100.00;95521.53;5355583;26;20344;-50
2024/04/22 07:15:10;;;;;;;12.77;8.30;;;7.30;64.90;;;1.06;100.00;95526.38;5365322;26;20003;-51
2024/04/22 07:17:36;;;;;;;10.43;7.95;;;7.30;65.00;;;1.05;100.00;95520.31;5360211;26;20015;-55
2024/04/22 07:20:04;;;;;;;14.63;8.27;;;7.30;65.00;;;1.06;100.00;95515.88;5362127;26;20004;-56
2024/04/22 07:22:37;;;;;;;11.63;7.63;;;7.30;65.00;;;0.97;100.00;95520.53;5354770;26;20057;-54
2024/04/22 07:25:06;;;;;;;11.25;7.85;;;7.20;64.90;;;0.96;100.00;95523.38;5361246;26;20024;-55
2024/04/22 07:27:33;;;;;;;13.60;7.88;;;7.20;65.10;;;1.02;100.00;95523.34;5353743;26;20011;-51
2024/04/22 07:30:03;;;;;;;14.57;8.48;;;7.20;65.20;;;1.06;100.00;95516.66;5353418;26;20009;-50
2024/04/22 07:32:29;;;;;;;13.32;8.55;;;7.20;65.20;;;1.11;100.00;95521.31;5356194;26;20015;-51
2024/04/22 07:34:56;;;;;;;12.02;8.15;;;7.20;65.20;;;1.10;100.00;95524.97;5357446;26;20472;-52
2024/04/22 07:37:44;;;;;;;13.38;8.00;;;7.30;65.20;;;1.17;100.00;95522.31;5371293;26;20466;-55
2024/04/22 07:40:19;;;;;;;13.77;7.90;;;7.40;65.20;;;1.22;100.00;95531.16;5350836;26;20004;-51
2024/04/22 07:42:47;;;;;;;12.38;8.07;;;7.50;65.00;;;1.34;100.00;95528.69;5366258;26;20084;-53
2024/04/22 07:45:16;;;;;;;12.30;8.13;;;7.60;64.90;;;1.37;100.00;95533.53;5355674;26;20489;-53
2024/04/22 07:47:43;;;;;;;11.95;8.18;;;7.70;64.90;;;1.41;100.00;95523.41;5363005;26;20016;-54
2024/04/22 07:50:10;;;;;;;12.48;8.05;;;7.80;64.70;;;1.42;100.00;95531.09;5357632;26;20000;-51
2024/04/22 07:52:38;;;;;;;10.52;7.20;;;8.00;64.50;;;1.52;100.00;95522.78;5364521;26;20011;-54
2024/04/22 07:55:06;;;;;;;10.15;6.82;;;8.10;64.40;;;1.51;100.00;95529.06;5370691;26;20105;-51
2024/04/22 07:57:32;;;;;;;11.35;7.35;;;8.10;64.10;;;1.58;100.00;95528.00;5340688;21;20123;-48
2024/04/22 08:00:01;;;;;;;9.80;7.30;;;8.10;64.00;;;1.59;100.00;95534.03;5294769;26;20014;-50
2024/04/22 08:02:27;;;;;;;9.95;7.38;;;8.10;63.80;;;1.54;100.00;95536.50;5270246;27;20010;-49
2024/04/22 08:04:54;;;;;;;9.95;7.45;;;8.10;63.80;;;1.44;100.00;95528.25;5266490;27;20080;-45
2024/04/22 08:07:20;;;;;;;9.98;7.50;;;8.00;63.70;;;1.38;100.00;95535.16;5269817;27;20459;-48
2024/04/22 08:09:48;;;;;;;10.82;8.05;;;7.90;63.60;;;1.32;100.00;95538.63;5251889;27;20006;-46
2024/04/22 08:12:14;;;;;;;12.75;8.10;;;7.80;63.60;;;1.23;100.00;95537.22;5250894;27;20025;-47
2024/04/22 08:14:41;;;;;;;10.52;7.68;;;7.70;63.70;;;1.14;100.00;95545.31;5247465;27;20011;-46
2024/04/22 08:17:07;;;;;;;10.10;6.80;;;7.70;63.80;;;1.03;100.00;95537.28;5254500;27;20006;-46
2024/04/22 08:19:33;;;;;;;11.52;7.90;;;7.60;63.80;;;1.18;100.00;95543.09;5241296;27;20011;-49
2024/04/22 08:21:59;;;;;;;9.25;7.18;;;7.60;63.90;;;1.19;100.00;95549.94;5259464;27;20428;-50
2024/04/22 08:24:26;;;;;;;9.35;6.82;;;7.60;64.10;;;1.22;100.00;95546.09;5231818;27;20015;-49
2024/04/22 08:26:57;;;;;;;9.80;6.25;;;7.60;64.10;;;0.98;100.00;95551.00;5259477;27;20010;-48
2024/04/22 08:29:23;;;;;;;9.55;6.97;;;7.50;64.10;;;1.01;100.00;95555.84;5253161;27;20014;-50
2024/04/22 08:31:49;;;;;;;11.60;7.70;;;7.50;64.20;;;1.03;100.00;95551.19;5262657;27;20020;-48
2024/04/22 08:34:15;;;;;;;11.32;7.68;;;7.40;64.20;;;1.06;100.00;95547.34;5240181;27;20005;-48
2024/04/22 08:36:41;;;;;;;10.20;7.32;;;7.30;64.40;;;1.06;100.00;95545.53;5254167;27;20069;-45
2024/04/22 08:39:07;;;;;;;11.93;7.47;;;7.20;64.60;;;1.04;100.00;95554.63;5245725;27;20026;-45
2024/04/22 08:41:37;;;;;;;9.30;7.38;;;7.20;64.70;;;1.04;100.00;95555.44;5249372;27;20060;-45
2024/04/22 08:44:04;;;;;;;8.43;6.65;;;7.10;64.70;;;1.13;100.00;95553.41;5253080;27;20750;-45
2024/04/22 08:46:30;;;;;;;9.93;6.60;;;7.10;64.80;;;1.18;100.00;95555.41;5248468;27;20021;-45
2024/04/22 08:48:56;;;;;;;8.43;6.53;;;7.10;65.00;;;1.28;100.00;95563.63;5248565;27;20092;-47
2024/04/22 08:51:25;;;;;;;8.57;6.97;;;7.30;65.10;;;1.30;100.00;95567.69;5247889;27;20014;-45
2024/04/22 08:53:54;;;;;;;9.40;6.53;;;7.50;65.00;;;1.40;100.00;95567.25;5269874;27;20015;-46
2024/04/22 08:56:25;;;;;;;6.82;5.93;;;7.60;64.90;;;1.38;100.00;95567.47;5258171;27;20013;-47
2024/04/22 08:58:52;;;;;;;7.20;6.17;;;7.60;64.70;;;1.43;100.00;95564.19;5245643;27;20020;-45
2024/04/22 09:01:18;;;;;;;8.45;6.22;;;7.60;64.60;;;1.42;100.00;95572.28;5246359;27;20010;-45
2024/04/22 09:03:44;;;;;;;10.52;5.57;;;7.70;64.50;;;1.41;100.00;95568.03;5238953;27;20011;-48
2024/04/22 09:06:11;;;;;;;8.15;5.93;;;7.60;64.40;;;1.35;100.00;95565.25;5243550;27;20346;-48
2024/04/22 09:08:47;;;;;;;7.97;5.68;;;7.60;64.30;;;1.29;100.00;95562.66;5232396;27;20014;-47
2024/04/22 09:11:17;;;;;;;7.45;5.75;;;7.50;64.30;;;1.38;100.00;95566.66;5233131;27;20051;-47
2024/04/22 09:13:44;;;;;;;7.13;5.45;;;7.50;64.30;;;1.41;100.00;95565.41;5255880;27;20011;-46
2024/04/22 09:16:17;;;;;;;6.72;5.57;;;7.50;64.30;;;1.42;100.00;95567.03;5237749;27;20080;-46
2024/04/22 09:18:43;;;;;;;7.03;5.38;;;7.60;64.20;;;1.47;100.00;95575.09;5236593;27;20106;-50
2024/04/22 09:21:11;;;;;;;6.75;5.47;;;7.60;64.20;;;1.43;100.00;95568.66;5223506;27;20083;-51
2024/04/22 09:23:37;;;;;;;6.60;5.13;;;7.80;64.30;;;1.56;100.00;95579.91;5238675;27;20502;-46
2024/04/22 09:26:05;;;;;;;6.78;4.97;;;7.80;64.10;;;1.77;100.00;95578.81;5239305;27;20024;-46
2024/04/22 09:28:35;;;;;;;7.30;5.30;;;8.00;64.10;;;1.87;100.00;95569.66;5232693;27;20019;-48
2024/04/22 09:31:04;;;;;;;6.25;5.15;;;8.20;64.10;;;2.12;100.00;95573.16;5243638;27;20022;-46
2024/04/22 09:33:35;;;;;;;6.00;4.55;;;8.50;64.00;;;2.33;100.00;95564.13;5228840;27;20513;-46
2024/04/22 09:36:06;;;;;;;5.20;4.20;;;8.70;63.60;;;2.26;100.00;95571.28;5237311;27;20178;-46
2024/04/22 09:38:34;;;;;;;5.22;4.30;;;8.90;63.20;;;2.44;100.00;95570.53;5241059;27;20095;-48
2024/04/22 09:41:03;;;;;;;6.03;4.60;;;9.00;62.90;;;2.36;100.00;95576.84;5231869;27;20507;-47
2024/04/22 09:43:37;;;;;;;6.50;4.50;;;9.00;62.50;;;2.51;100.00;95573.94;5228329;27;20011;-53
2024/04/22 09:46:04;;;;;;;4.68;3.88;;;9.00;62.30;;;2.57;100.00;95567.81;5230506;27;20023;-53
2024/04/22 09:48:31;;;;;;;5.55;4.65;;;9.00;62.10;;;2.71;100.00;95568.50;5228652;27;20030;-55
2024/04/22 09:51:01;;;;;;;4.80;3.88;;;9.00;62.10;;;2.55;100.00;95552.25;5239554;27;20011;-51
2024/04/22 09:53:27;;;;;;;5.35;4.28;;;9.00;61.80;;;2.62;100.00;95567.97;5223596;27;20015;-50
2024/04/22 09:56:07;;;;;;;6.07;5.00;;;8.90;61.70;;;2.72;100.00;95564.84;5234213;27;20011;-52
2024/04/22 09:58:37;;;;;;;5.75;4.60;;;9.00;61.70;;;2.75;100.00;95561.78;5236855;27;20006;-55
2024/04/22 10:01:04;;;;;;;5.90;5.18;;;9.10;61.70;;;2.71;100.00;95571.13;5279865;27;20053;-51
2024/04/22 10:03:30;;;;;;;5.93;4.82;;;9.20;61.50;;;2.80;100.00;95555.88;5239110;27;20014;-50
2024/04/22 10:05:59;;;;;;;5.57;4.80;;;9.30;61.20;;;2.89;100.00;95568.56;5233206;27;20002;-54
2024/04/22 10:08:29;;;;;;;6.32;5.03;;;9.50;61.00;;;2.91;100.00;95563.84;5228114;27;20006;-53
2024/04/22 10:11:10;;;;;;;5.35;4.75;;;9.60;60.80;;;2.99;100.00;95565.41;5236895;27;20500;-51
2024/04/22 10:13:37;;;;;;;6.03;4.97;;;9.70;60.40;;;3.06;100.00;95560.88;5229197;27;20459;-54
2024/04/22 10:16:04;;;;;;;5.30;4.40;;;9.60;60.40;;;2.86;100.00;95563.72;5236077;27;20054;-51
2024/04/22 10:18:31;;;;;;;6.55;4.47;;;9.60;60.30;;;2.87;100.00;95564.53;5233195;27;20007;-53
2024/04/22 10:21:02;;;;;;;8.02;4.40;;;9.50;60.30;;;2.92;100.00;95565.50;5233091;27;20011;-50
2024/04/22 10:23:29;;;;;;;5.80;4.53;;;9.50;60.30;;;3.02;100.00;95557.09;5234472;27;20015;-53